Startpagina
METAR-TAF:

METAR-TAF

Vliegvelden :

Weno, Weno Island, Micronesië

breedte: 07-28N, lengte: 151-51E, hoogte: 3 m

Actueel weer

Dit bericht is 1 uur en het 9 minuten geleden gemaakt, om 00:50 UTC
Wind 10 kt uit het zuidzuidoosten
Temperatuur 31°C
Vochtigheid 79%
Druk 1011 hPa
Zicht: 24.1 km
Weinig wolken op 1400 ft
Gebroken wolken op 12000 ft
Geheel bewolkt op 28000 ft

METAR: PTKK 230050Z 16010KT 15SM FEW014 BKN120 OVC280 31/27 A2984 RMK SLP106 T03110272

Tijdstip: 11:59 (01:59 UTC)

Verwachting

Dit bericht is 2 uur en het 36 minuten geleden gemaakt, om 23:23 UTC
Verwachting geldig van 23 om 00 UTC tot 23 om 24 UTC
Wind 10 kt uit het zuidzuidoosten
Zicht: 10 km
Verspreide wolken op 1400 ft
Verspreide wolken op 12000 ft
buien in de omgeving

TAF: PTKK 222323Z 2300/2324 16010KT P6SM VCSH SCT014 SCT120

Waarnemingen en weersverwachtingen van meer dan 4000 vliegvelden (METAR en TAF).

De beschikbare stations zijn de gele en rode punten op de kaart.

Ga met uw muis naar het station om de naam te zien.

Klik dan om waarnemingen en weersverwachtingen te zien.

kaart wijzigen: klik op de groene knoppen met een zwart kruis om in te zoomen, op de groene knop met een streepje om uit te zoomen of op de groene pijlen voor aangrenzende kaarten.


METAR-TAF: